createdAt,value
2018-12-27T18:47:24.750Z,1018.05
2018-12-27T18:48:24.735Z,1018.07
2018-12-27T18:49:55.190Z,1018.04
2018-12-27T18:50:55.167Z,1018.00
2018-12-27T18:52:25.633Z,1017.98
2018-12-27T18:53:25.623Z,1018.02
2018-12-27T18:54:56.118Z,1018.08
2018-12-27T18:55:56.068Z,1018.09
2018-12-27T18:57:26.536Z,1018.02
2018-12-27T18:58:26.528Z,1018.07
2018-12-27T18:59:56.996Z,1018.02
2018-12-27T19:00:56.980Z,1018.10
2018-12-27T19:02:27.434Z,1018.10
2018-12-27T19:03:27.426Z,1018.08
2018-12-27T19:04:57.928Z,1018.04
2018-12-27T19:05:57.880Z,1018.04
2018-12-27T19:07:32.713Z,1018.16
2018-12-27T19:08:32.690Z,1018.04
2018-12-27T19:10:03.159Z,1018.03
2018-12-27T19:11:03.135Z,1018.03
2018-12-27T19:12:33.621Z,1018.02
2018-12-27T19:13:33.608Z,1018.06
2018-12-27T19:15:04.079Z,1018.11
2018-12-27T19:16:04.053Z,1018.15
2018-12-27T19:17:34.542Z,1018.10
2018-12-27T19:18:34.514Z,1018.09
2018-12-27T19:20:04.992Z,1018.06
2018-12-27T19:21:04.955Z,1018.10
2018-12-27T19:22:35.421Z,1018.12
2018-12-27T19:23:35.405Z,1018.13
2018-12-27T19:25:05.876Z,1018.10
2018-12-27T19:26:05.861Z,1018.06
2018-12-27T19:27:05.839Z,1018.06
2018-12-27T19:28:05.831Z,1018.07
2018-12-27T19:29:05.817Z,1018.06
2018-12-27T19:30:05.836Z,1018.10
2018-12-27T19:31:05.796Z,1018.11
2018-12-27T19:32:05.787Z,1018.11
2018-12-27T19:33:05.776Z,1018.08
2018-12-27T19:34:05.765Z,1018.13
2018-12-27T19:35:05.758Z,1018.13
2018-12-27T19:36:05.818Z,1018.11
2018-12-27T19:37:05.732Z,1018.13
2018-12-27T19:38:05.727Z,1018.10
2018-12-27T19:39:05.709Z,1018.10
2018-12-27T19:40:05.722Z,1018.12
2018-12-27T19:41:05.698Z,1018.14
2018-12-27T19:42:05.676Z,1018.20
2018-12-27T19:43:05.671Z,1018.17
2018-12-27T19:44:05.653Z,1018.20
2018-12-27T19:45:05.649Z,1018.19
2018-12-27T19:46:05.634Z,1018.21
2018-12-27T19:47:05.634Z,1018.22
2018-12-27T19:48:05.676Z,1018.23
2018-12-27T19:49:05.610Z,1018.29
2018-12-27T19:50:05.596Z,1018.26
2018-12-27T19:51:05.593Z,1018.28
2018-12-27T19:52:05.597Z,1018.29
2018-12-27T19:53:05.566Z,1018.28
2018-12-27T19:54:05.554Z,1018.27
2018-12-27T19:55:05.551Z,1018.31
2018-12-27T19:56:05.537Z,1018.30
2018-12-27T19:57:05.527Z,1018.30
2018-12-27T19:58:05.519Z,1018.33
2018-12-27T19:59:05.531Z,1018.33
2018-12-27T20:00:05.486Z,1018.36
2018-12-27T20:01:05.488Z,1018.32
2018-12-27T20:02:05.491Z,1018.29
2018-12-27T20:03:05.464Z,1018.30
2018-12-27T20:04:05.459Z,1018.27
2018-12-27T20:05:05.430Z,1018.22
2018-12-27T20:06:05.428Z,1018.18
2018-12-27T20:07:05.436Z,1018.22
2018-12-27T20:08:05.402Z,1018.21
2018-12-27T20:09:05.400Z,1018.22
2018-12-27T20:10:05.382Z,1018.24
2018-12-27T20:11:05.364Z,1018.25
2018-12-27T20:12:05.359Z,1018.25
2018-12-27T20:13:05.397Z,1018.22
2018-12-27T20:14:05.341Z,1018.24
2018-12-27T20:15:05.323Z,1018.21
2018-12-27T20:16:05.311Z,1018.27
2018-12-27T20:17:05.305Z,1018.27
2018-12-27T20:18:05.295Z,1018.31
2018-12-27T20:19:05.281Z,1018.37
2018-12-27T20:20:05.289Z,1018.32
2018-12-27T20:21:05.256Z,1018.31
2018-12-27T20:22:05.248Z,1018.31
2018-12-27T20:23:05.731Z,1018.36
2018-12-27T20:24:05.223Z,1018.34
2018-12-27T20:25:05.218Z,1018.31
2018-12-27T20:26:05.208Z,1018.34
2018-12-27T20:27:05.198Z,1018.33
2018-12-27T20:28:05.181Z,1018.33
2018-12-27T20:29:05.176Z,1018.31
2018-12-27T20:30:05.155Z,1018.26
2018-12-27T20:31:05.151Z,1018.27
2018-12-27T20:32:05.133Z,1018.24
2018-12-27T20:33:05.130Z,1018.25
2018-12-27T20:34:05.106Z,1018.23
2018-12-27T20:35:05.099Z,1018.23
2018-12-27T20:36:05.085Z,1018.22
2018-12-27T20:37:05.077Z,1018.24
2018-12-27T20:38:06.739Z,1018.25
2018-12-27T20:39:05.054Z,1018.24
2018-12-27T20:40:05.052Z,1018.19
2018-12-27T20:41:05.041Z,1018.18
2018-12-27T20:42:05.021Z,1018.17
2018-12-27T20:43:05.015Z,1018.19
2018-12-27T20:44:05.005Z,1018.15
2018-12-27T20:45:04.997Z,1018.16
2018-12-27T20:46:05.008Z,1018.15
2018-12-27T20:47:04.973Z,1018.16
2018-12-27T20:48:04.963Z,1018.16
2018-12-27T20:49:04.971Z,1018.14
2018-12-27T20:50:04.934Z,1018.09
2018-12-27T20:51:04.949Z,1018.11
2018-12-27T20:52:04.914Z,1018.13
2018-12-27T20:53:04.901Z,1018.11
2018-12-27T20:54:04.918Z,1018.18
2018-12-27T20:55:04.876Z,1018.15
2018-12-27T20:56:04.871Z,1018.17
2018-12-27T20:57:04.858Z,1018.13
2018-12-27T20:58:04.845Z,1018.09
2018-12-27T20:59:04.834Z,1018.07
2018-12-27T21:00:04.826Z,1018.09
2018-12-27T21:01:04.818Z,1018.07
2018-12-27T21:02:04.814Z,1018.07
2018-12-27T21:03:04.798Z,1018.08
2018-12-27T21:04:04.779Z,1018.08
2018-12-27T21:05:04.791Z,1018.05
2018-12-27T21:06:04.771Z,1018.05
2018-12-27T21:07:04.756Z,1018.03
2018-12-27T21:08:04.748Z,1018.03
2018-12-27T21:09:04.745Z,1018.01
2018-12-27T21:10:04.730Z,1018.02
2018-12-27T21:11:04.716Z,1018.03
2018-12-27T21:12:04.734Z,1018.06
2018-12-27T21:13:04.713Z,1018.02
2018-12-27T21:14:24.387Z,1018.00
2018-12-27T21:15:24.343Z,1018.00
2018-12-27T21:16:54.834Z,1017.97
2018-12-27T21:17:54.824Z,1017.97
2018-12-27T21:19:25.272Z,1017.96
2018-12-27T21:20:25.256Z,1017.94
2018-12-27T21:21:55.735Z,1017.96
2018-12-27T21:22:55.727Z,1017.95
2018-12-27T21:24:26.202Z,1017.88
2018-12-27T21:25:26.195Z,1017.93
2018-12-27T21:26:56.639Z,1017.83
2018-12-27T21:27:56.622Z,1017.83
2018-12-27T21:29:27.101Z,1017.86
2018-12-27T21:30:27.073Z,1017.83
2018-12-27T21:31:57.604Z,1017.82
2018-12-27T21:32:57.527Z,1017.81
2018-12-27T21:33:57.514Z,1017.86
2018-12-27T21:34:57.505Z,1017.86
2018-12-27T21:35:57.489Z,1017.88
2018-12-27T21:36:57.487Z,1017.92
2018-12-27T21:37:57.477Z,1017.94
2018-12-27T21:38:57.472Z,1017.92
2018-12-27T21:39:57.449Z,1017.99
2018-12-27T21:40:57.455Z,1017.98
2018-12-27T21:41:57.426Z,1017.96
2018-12-27T21:42:57.415Z,1017.99
2018-12-27T21:43:57.410Z,1017.95
2018-12-27T21:44:57.405Z,1017.95
2018-12-27T21:45:57.390Z,1017.99
2018-12-27T21:46:57.391Z,1017.95
2018-12-27T21:47:57.364Z,1017.94
2018-12-27T21:48:57.351Z,1017.96
2018-12-27T21:49:57.362Z,1017.93
2018-12-27T21:50:57.357Z,1017.92
2018-12-27T21:51:57.369Z,1017.92
2018-12-27T21:52:57.398Z,1017.90
2018-12-27T21:53:57.343Z,1017.94
2018-12-27T21:54:57.286Z,1017.91
2018-12-27T21:55:57.277Z,1017.87
2018-12-27T21:56:57.264Z,1017.88
2018-12-27T21:57:57.259Z,1017.86
2018-12-27T21:58:57.353Z,1017.86
2018-12-27T21:59:57.235Z,1017.87
2018-12-27T22:00:57.239Z,1017.84
2018-12-27T22:01:57.229Z,1017.84
2018-12-27T22:02:57.196Z,1017.84
2018-12-27T22:03:57.195Z,1017.83
2018-12-27T22:04:57.186Z,1017.82
2018-12-27T22:05:57.197Z,1017.76
2018-12-27T22:06:57.170Z,1017.73
2018-12-27T22:07:57.162Z,1017.71
2018-12-27T22:08:57.137Z,1017.72
2018-12-27T22:09:57.130Z,1017.72
2018-12-27T22:10:57.120Z,1017.70
2018-12-27T22:11:57.114Z,1017.72
2018-12-27T22:12:57.095Z,1017.76
2018-12-27T22:13:57.086Z,1017.76
2018-12-27T22:14:57.080Z,1017.78
2018-12-27T22:15:57.376Z,1017.79
2018-12-27T22:16:57.054Z,1017.80
2018-12-27T22:17:57.047Z,1017.77
2018-12-27T22:18:57.038Z,1017.72
2018-12-27T22:19:57.033Z,1017.70
2018-12-27T22:20:57.048Z,1017.67
2018-12-27T22:21:57.001Z,1017.67
2018-12-27T22:22:57.005Z,1017.64
2018-12-27T22:23:56.977Z,1017.62
2018-12-27T22:24:56.982Z,1017.63
2018-12-27T22:25:56.996Z,1017.58
2018-12-27T22:26:56.956Z,1017.56
2018-12-27T22:27:56.938Z,1017.57
2018-12-27T22:28:56.931Z,1017.54
2018-12-27T22:29:56.920Z,1017.55
2018-12-27T22:30:56.906Z,1017.54
2018-12-27T22:31:56.899Z,1017.55
2018-12-27T22:32:56.911Z,1017.58
2018-12-27T22:33:56.875Z,1017.63
2018-12-27T22:34:56.858Z,1017.71
2018-12-27T22:35:56.856Z,1017.77
2018-12-27T22:36:56.937Z,1017.85
2018-12-27T22:37:56.836Z,1017.82
2018-12-27T22:38:56.819Z,1017.89
2018-12-27T22:39:56.807Z,1017.90
2018-12-27T22:40:56.801Z,1017.91
2018-12-27T22:41:56.864Z,1017.98
2018-12-27T22:42:56.789Z,1017.92
2018-12-27T22:43:56.793Z,1017.94
2018-12-27T22:44:56.756Z,1017.93
2018-12-27T22:45:56.749Z,1017.91
2018-12-27T22:46:56.730Z,1017.86
2018-12-27T22:47:56.726Z,1017.82
2018-12-27T22:48:56.711Z,1017.76
2018-12-27T22:49:56.758Z,1017.76
2018-12-27T22:50:56.690Z,1017.71
2018-12-27T22:51:56.673Z,1017.69
2018-12-27T22:52:56.665Z,1017.69
2018-12-27T22:53:56.658Z,1017.72
2018-12-27T22:54:56.642Z,1017.71
2018-12-27T22:55:56.729Z,1017.74
2018-12-27T22:56:56.640Z,1017.73
2018-12-27T22:57:56.619Z,1017.75
2018-12-27T22:58:56.609Z,1017.70
2018-12-27T22:59:56.602Z,1017.72
2018-12-27T23:00:56.589Z,1017.67
2018-12-27T23:01:56.582Z,1017.67
2018-12-27T23:02:56.561Z,1017.72
2018-12-27T23:03:56.558Z,1017.72
2018-12-27T23:04:56.545Z,1017.76
2018-12-27T23:05:56.536Z,1017.73
2018-12-27T23:06:56.526Z,1017.74
2018-12-27T23:07:56.518Z,1017.73
2018-12-27T23:08:56.531Z,1017.67
2018-12-27T23:09:56.486Z,1017.69
2018-12-27T23:10:56.477Z,1017.67
2018-12-27T23:11:56.463Z,1017.68
2018-12-27T23:12:56.455Z,1017.65
2018-12-27T23:13:56.449Z,1017.66
2018-12-27T23:14:56.431Z,1017.65
2018-12-27T23:15:56.423Z,1017.63
2018-12-27T23:16:56.411Z,1017.60
2018-12-27T23:17:56.411Z,1017.62
2018-12-27T23:18:56.390Z,1017.63
2018-12-27T23:19:56.381Z,1017.59
2018-12-27T23:20:56.561Z,1017.60
2018-12-27T23:21:56.358Z,1017.57
2018-12-27T23:22:56.348Z,1017.55
2018-12-27T23:23:56.344Z,1017.44
2018-12-27T23:24:56.337Z,1017.43
2018-12-27T23:25:57.635Z,1017.48
2018-12-27T23:26:56.318Z,1017.40
2018-12-27T23:27:56.300Z,1017.41
2018-12-27T23:28:56.292Z,1017.42
2018-12-27T23:29:56.280Z,1017.46
2018-12-27T23:30:56.278Z,1017.39
2018-12-27T23:31:56.259Z,1017.40
2018-12-27T23:32:56.246Z,1017.41
2018-12-27T23:33:56.236Z,1017.42
2018-12-27T23:34:56.221Z,1017.38
2018-12-27T23:35:56.212Z,1017.43
2018-12-27T23:36:56.202Z,1017.46
2018-12-27T23:37:56.191Z,1017.52
2018-12-27T23:38:56.191Z,1017.51
2018-12-27T23:39:56.181Z,1017.50
2018-12-27T23:40:56.160Z,1017.50
2018-12-27T23:41:56.145Z,1017.50
2018-12-27T23:42:56.138Z,1017.49
2018-12-27T23:43:56.133Z,1017.53
2018-12-27T23:44:56.115Z,1017.51
2018-12-27T23:45:56.136Z,1017.53
2018-12-27T23:46:56.099Z,1017.55
2018-12-27T23:47:56.081Z,1017.56
2018-12-27T23:48:56.076Z,1017.57
2018-12-27T23:49:56.063Z,1017.54
2018-12-27T23:50:56.054Z,1017.60
2018-12-27T23:51:56.038Z,1017.58
2018-12-27T23:52:56.029Z,1017.56
2018-12-27T23:53:56.018Z,1017.58
2018-12-27T23:54:56.042Z,1017.52
2018-12-27T23:55:56.001Z,1017.47
2018-12-27T23:56:55.984Z,1017.46
2018-12-27T23:57:55.976Z,1017.47
2018-12-27T23:58:55.967Z,1017.45
2018-12-27T23:59:55.958Z,1017.44
